sensor_id;sensor_type;location;lat;lon;timestamp;P1;durP1;ratioP1;P2;durP2;ratioP2
3801;SDS011;1916;51.798;12.246;2023-03-02T00:01:05;26.07;;;14.07;;
3801;SDS011;1916;51.798;12.246;2023-03-02T00:03:09;21.73;;;12.70;;
3801;SDS011;1916;51.798;12.246;2023-03-02T00:05:11;25.30;;;13.00;;
3801;SDS011;1916;51.798;12.246;2023-03-02T00:07:16;25.23;;;13.07;;
3801;SDS011;1916;51.798;12.246;2023-03-02T00:09:20;21.10;;;12.50;;
3801;SDS011;1916;51.798;12.246;2023-03-02T00:11:22;27.63;;;13.10;;
3801;SDS011;1916;51.798;12.246;2023-03-02T00:13:24;25.50;;;13.50;;
3801;SDS011;1916;51.798;12.246;2023-03-02T00:15:26;26.20;;;13.90;;
3801;SDS011;1916;51.798;12.246;2023-03-02T00:17:28;24.50;;;14.53;;
3801;SDS011;1916;51.798;12.246;2023-03-02T00:19:30;35.58;;;15.88;;
3801;SDS011;1916;51.798;12.246;2023-03-02T00:21:32;23.67;;;12.80;;
3801;SDS011;1916;51.798;12.246;2023-03-02T00:23:35;26.00;;;14.57;;
3801;SDS011;1916;51.798;12.246;2023-03-02T00:25:38;33.40;;;14.57;;
3801;SDS011;1916;51.798;12.246;2023-03-02T00:27:40;23.07;;;13.17;;
3801;SDS011;1916;51.798;12.246;2023-03-02T00:29:43;24.70;;;12.90;;
3801;SDS011;1916;51.798;12.246;2023-03-02T00:31:46;24.53;;;13.30;;
3801;SDS011;1916;51.798;12.246;2023-03-02T00:33:49;24.60;;;13.07;;
3801;SDS011;1916;51.798;12.246;2023-03-02T00:35:51;26.65;;;13.70;;
3801;SDS011;1916;51.798;12.246;2023-03-02T00:37:54;25.00;;;12.87;;
3801;SDS011;1916;51.798;12.246;2023-03-02T00:39:56;26.67;;;12.47;;
3801;SDS011;1916;51.798;12.246;2023-03-02T00:41:58;25.33;;;13.35;;
3801;SDS011;1916;51.798;12.246;2023-03-02T00:44:00;23.03;;;12.63;;
3801;SDS011;1916;51.798;12.246;2023-03-02T00:46:11;22.37;;;12.90;;
3801;SDS011;1916;51.798;12.246;2023-03-02T00:48:18;23.57;;;11.70;;
3801;SDS011;1916;51.798;12.246;2023-03-02T00:50:20;25.60;;;13.48;;
3801;SDS011;1916;51.798;12.246;2023-03-02T00:52:22;27.60;;;13.37;;
3801;SDS011;1916;51.798;12.246;2023-03-02T00:54:24;25.53;;;12.00;;
3801;SDS011;1916;51.798;12.246;2023-03-02T00:56:27;42.67;;;14.23;;
3801;SDS011;1916;51.798;12.246;2023-03-02T00:58:29;27.53;;;12.60;;
3801;SDS011;1916;51.798;12.246;2023-03-02T01:00:32;27.73;;;12.50;;
3801;SDS011;1916;51.798;12.246;2023-03-02T01:02:39;29.67;;;13.13;;
3801;SDS011;1916;51.798;12.246;2023-03-02T01:04:48;30.63;;;13.30;;
3801;SDS011;1916;51.798;12.246;2023-03-02T01:06:50;24.80;;;14.13;;
3801;SDS011;1916;51.798;12.246;2023-03-02T01:08:52;31.20;;;14.63;;
3801;SDS011;1916;51.798;12.246;2023-03-02T01:10:54;27.50;;;13.00;;
3801;SDS011;1916;51.798;12.246;2023-03-02T01:12:56;35.73;;;16.03;;
3801;SDS011;1916;51.798;12.246;2023-03-02T01:14:58;33.33;;;14.00;;
3801;SDS011;1916;51.798;12.246;2023-03-02T01:17:01;23.17;;;13.70;;
3801;SDS011;1916;51.798;12.246;2023-03-02T01:19:04;28.87;;;14.43;;
3801;SDS011;1916;51.798;12.246;2023-03-02T01:21:07;30.53;;;14.30;;
3801;SDS011;1916;51.798;12.246;2023-03-02T01:23:11;27.87;;;14.73;;
3801;SDS011;1916;51.798;12.246;2023-03-02T01:25:13;24.52;;;14.60;;
3801;SDS011;1916;51.798;12.246;2023-03-02T01:27:15;26.00;;;15.50;;
3801;SDS011;1916;51.798;12.246;2023-03-02T01:29:17;27.00;;;14.60;;
3801;SDS011;1916;51.798;12.246;2023-03-02T01:31:22;26.45;;;14.43;;
3801;SDS011;1916;51.798;12.246;2023-03-02T01:33:25;20.13;;;14.07;;
3801;SDS011;1916;51.798;12.246;2023-03-02T01:35:27;23.37;;;13.13;;
3801;SDS011;1916;51.798;12.246;2023-03-02T01:37:29;23.03;;;13.17;;
3801;SDS011;1916;51.798;12.246;2023-03-02T01:39:31;27.83;;;13.97;;
3801;SDS011;1916;51.798;12.246;2023-03-02T01:41:33;24.87;;;12.50;;
3801;SDS011;1916;51.798;12.246;2023-03-02T01:43:36;22.57;;;14.70;;
3801;SDS011;1916;51.798;12.246;2023-03-02T01:47:52;31.10;;;14.83;;
3801;SDS011;1916;51.798;12.246;2023-03-02T01:52:01;32.13;;;16.00;;
3801;SDS011;1916;51.798;12.246;2023-03-02T01:54:05;23.23;;;13.23;;
3801;SDS011;1916;51.798;12.246;2023-03-02T01:56:10;26.73;;;15.80;;
3801;SDS011;1916;51.798;12.246;2023-03-02T01:58:12;19.67;;;13.20;;
3801;SDS011;1916;51.798;12.246;2023-03-02T02:00:17;24.88;;;15.25;;
3801;SDS011;1916;51.798;12.246;2023-03-02T02:02:22;29.43;;;14.40;;
3801;SDS011;1916;51.798;12.246;2023-03-02T02:04:25;26.13;;;14.50;;
3801;SDS011;1916;51.798;12.246;2023-03-02T02:08:34;28.33;;;15.83;;
3801;SDS011;1916;51.798;12.246;2023-03-02T02:10:37;26.20;;;14.50;;
3801;SDS011;1916;51.798;12.246;2023-03-02T02:12:39;19.00;;;13.53;;
3801;SDS011;1916;51.798;12.246;2023-03-02T02:14:43;26.17;;;14.47;;
3801;SDS011;1916;51.798;12.246;2023-03-02T02:16:46;20.77;;;13.70;;
3801;SDS011;1916;51.798;12.246;2023-03-02T02:18:49;31.65;;;15.57;;
3801;SDS011;1916;51.798;12.246;2023-03-02T02:20:51;20.33;;;13.73;;
3801;SDS011;1916;51.798;12.246;2023-03-02T02:26:09;27.92;;;15.10;;
3801;SDS011;1916;51.798;12.246;2023-03-02T02:27:56;24.40;;;15.73;;
3801;SDS011;1916;51.798;12.246;2023-03-02T02:29:59;28.77;;;14.97;;
3801;SDS011;1916;51.798;12.246;2023-03-02T02:32:37;22.27;;;13.03;;
3801;SDS011;1916;51.798;12.246;2023-03-02T02:36:45;21.90;;;13.93;;
3801;SDS011;1916;51.798;12.246;2023-03-02T02:38:52;26.33;;;14.50;;
3801;SDS011;1916;51.798;12.246;2023-03-02T02:40:57;22.13;;;12.40;;
3801;SDS011;1916;51.798;12.246;2023-03-02T02:43:05;28.90;;;13.40;;
3801;SDS011;1916;51.798;12.246;2023-03-02T02:45:19;27.43;;;15.77;;
3801;SDS011;1916;51.798;12.246;2023-03-02T02:47:23;22.67;;;13.03;;
3801;SDS011;1916;51.798;12.246;2023-03-02T02:49:35;27.77;;;15.43;;
3801;SDS011;1916;51.798;12.246;2023-03-02T02:51:39;23.93;;;15.37;;
3801;SDS011;1916;51.798;12.246;2023-03-02T02:56:13;28.13;;;15.35;;
3801;SDS011;1916;51.798;12.246;2023-03-02T02:58:27;24.08;;;14.98;;
3801;SDS011;1916;51.798;12.246;2023-03-02T03:00:51;29.33;;;15.77;;
3801;SDS011;1916;51.798;12.246;2023-03-02T03:03:04;26.60;;;15.10;;
3801;SDS011;1916;51.798;12.246;2023-03-02T03:05:14;22.67;;;14.23;;
3801;SDS011;1916;51.798;12.246;2023-03-02T03:07:20;23.83;;;14.50;;
3801;SDS011;1916;51.798;12.246;2023-03-02T03:09:25;23.37;;;14.27;;
3801;SDS011;1916;51.798;12.246;2023-03-02T03:11:29;26.40;;;14.20;;
3801;SDS011;1916;51.798;12.246;2023-03-02T03:13:33;34.00;;;14.83;;
3801;SDS011;1916;51.798;12.246;2023-03-02T03:15:36;23.00;;;14.33;;
3801;SDS011;1916;51.798;12.246;2023-03-02T03:17:38;24.90;;;14.97;;
3801;SDS011;1916;51.798;12.246;2023-03-02T03:19:41;23.07;;;15.57;;
3801;SDS011;1916;51.798;12.246;2023-03-02T03:21:46;20.52;;;13.93;;
3801;SDS011;1916;51.798;12.246;2023-03-02T03:23:51;25.83;;;15.43;;
3801;SDS011;1916;51.798;12.246;2023-03-02T03:25:53;22.93;;;14.13;;
3801;SDS011;1916;51.798;12.246;2023-03-02T03:27:55;17.90;;;13.57;;
3801;SDS011;1916;51.798;12.246;2023-03-02T03:29:58;23.53;;;11.93;;
3801;SDS011;1916;51.798;12.246;2023-03-02T03:32:04;21.63;;;13.30;;
3801;SDS011;1916;51.798;12.246;2023-03-02T03:34:08;23.95;;;12.32;;
3801;SDS011;1916;51.798;12.246;2023-03-02T03:36:11;24.40;;;14.63;;
3801;SDS011;1916;51.798;12.246;2023-03-02T03:38:13;25.90;;;15.52;;
3801;SDS011;1916;51.798;12.246;2023-03-02T03:40:16;18.50;;;12.13;;
3801;SDS011;1916;51.798;12.246;2023-03-02T03:42:19;21.60;;;12.03;;
3801;SDS011;1916;51.798;12.246;2023-03-02T03:44:23;20.70;;;12.75;;
3801;SDS011;1916;51.798;12.246;2023-03-02T03:46:25;27.33;;;14.13;;
3801;SDS011;1916;51.798;12.246;2023-03-02T03:48:27;24.77;;;12.70;;
3801;SDS011;1916;51.798;12.246;2023-03-02T03:50:30;20.10;;;12.70;;
3801;SDS011;1916;51.798;12.246;2023-03-02T03:52:32;23.70;;;12.60;;
3801;SDS011;1916;51.798;12.246;2023-03-02T03:54:43;22.07;;;12.60;;
3801;SDS011;1916;51.798;12.246;2023-03-02T03:56:47;18.10;;;11.65;;
3801;SDS011;1916;51.798;12.246;2023-03-02T03:58:50;17.25;;;11.60;;
3801;SDS011;1916;51.798;12.246;2023-03-02T04:01:02;19.50;;;11.67;;
3801;SDS011;1916;51.798;12.246;2023-03-02T04:03:04;20.27;;;12.60;;
3801;SDS011;1916;51.798;12.246;2023-03-02T04:05:07;19.10;;;11.70;;
3801;SDS011;1916;51.798;12.246;2023-03-02T04:07:10;17.07;;;11.87;;
3801;SDS011;1916;51.798;12.246;2023-03-02T04:09:12;20.10;;;11.80;;
3801;SDS011;1916;51.798;12.246;2023-03-02T04:11:16;18.47;;;11.20;;
3801;SDS011;1916;51.798;12.246;2023-03-02T04:13:18;17.80;;;11.40;;
3801;SDS011;1916;51.798;12.246;2023-03-02T04:15:20;22.53;;;12.23;;
3801;SDS011;1916;51.798;12.246;2023-03-02T04:17:24;20.20;;;10.83;;
3801;SDS011;1916;51.798;12.246;2023-03-02T04:19:27;18.73;;;11.57;;
3801;SDS011;1916;51.798;12.246;2023-03-02T04:21:31;16.30;;;10.80;;
3801;SDS011;1916;51.798;12.246;2023-03-02T04:23:33;21.40;;;11.35;;
3801;SDS011;1916;51.798;12.246;2023-03-02T04:25:35;16.13;;;10.37;;
3801;SDS011;1916;51.798;12.246;2023-03-02T04:27:45;16.30;;;10.10;;
3801;SDS011;1916;51.798;12.246;2023-03-02T04:29:48;20.77;;;10.70;;
3801;SDS011;1916;51.798;12.246;2023-03-02T04:31:54;17.75;;;10.23;;
3801;SDS011;1916;51.798;12.246;2023-03-02T04:33:57;14.90;;;9.50;;
3801;SDS011;1916;51.798;12.246;2023-03-02T04:35:59;17.17;;;11.00;;
3801;SDS011;1916;51.798;12.246;2023-03-02T04:38:03;16.23;;;10.30;;
3801;SDS011;1916;51.798;12.246;2023-03-02T04:40:05;27.47;;;10.60;;
3801;SDS011;1916;51.798;12.246;2023-03-02T04:42:08;20.43;;;10.30;;
3801;SDS011;1916;51.798;12.246;2023-03-02T04:44:10;16.73;;;10.13;;
3801;SDS011;1916;51.798;12.246;2023-03-02T04:46:17;15.40;;;9.30;;
3801;SDS011;1916;51.798;12.246;2023-03-02T04:48:21;17.30;;;10.40;;
3801;SDS011;1916;51.798;12.246;2023-03-02T04:50:23;14.20;;;9.70;;
3801;SDS011;1916;51.798;12.246;2023-03-02T04:52:26;16.17;;;10.10;;
3801;SDS011;1916;51.798;12.246;2023-03-02T04:54:28;12.97;;;9.40;;
3801;SDS011;1916;51.798;12.246;2023-03-02T04:56:31;16.13;;;9.77;;
3801;SDS011;1916;51.798;12.246;2023-03-02T04:58:33;20.07;;;9.57;;
3801;SDS011;1916;51.798;12.246;2023-03-02T05:00:35;18.90;;;10.27;;
3801;SDS011;1916;51.798;12.246;2023-03-02T05:02:38;15.35;;;10.32;;
3801;SDS011;1916;51.798;12.246;2023-03-02T05:04:41;14.85;;;9.85;;
3801;SDS011;1916;51.798;12.246;2023-03-02T05:06:43;15.68;;;9.70;;
3801;SDS011;1916;51.798;12.246;2023-03-02T05:08:46;14.80;;;9.43;;
3801;SDS011;1916;51.798;12.246;2023-03-02T05:10:48;15.70;;;8.63;;
3801;SDS011;1916;51.798;12.246;2023-03-02T05:12:51;17.77;;;9.30;;
3801;SDS011;1916;51.798;12.246;2023-03-02T05:14:58;17.20;;;10.23;;
3801;SDS011;1916;51.798;12.246;2023-03-02T05:17:00;13.23;;;8.90;;
3801;SDS011;1916;51.798;12.246;2023-03-02T05:19:03;15.30;;;9.40;;
3801;SDS011;1916;51.798;12.246;2023-03-02T05:21:06;14.47;;;10.00;;
3801;SDS011;1916;51.798;12.246;2023-03-02T05:23:08;16.33;;;9.50;;
3801;SDS011;1916;51.798;12.246;2023-03-02T05:25:11;17.07;;;9.57;;
3801;SDS011;1916;51.798;12.246;2023-03-02T05:27:13;13.97;;;9.50;;
3801;SDS011;1916;51.798;12.246;2023-03-02T05:29:15;13.23;;;8.40;;
3801;SDS011;1916;51.798;12.246;2023-03-02T05:31:32;18.27;;;9.20;;
3801;SDS011;1916;51.798;12.246;2023-03-02T05:33:37;13.03;;;9.13;;
3801;SDS011;1916;51.798;12.246;2023-03-02T05:35:40;15.13;;;9.30;;
3801;SDS011;1916;51.798;12.246;2023-03-02T05:37:42;18.20;;;9.53;;
3801;SDS011;1916;51.798;12.246;2023-03-02T05:39:45;15.45;;;9.70;;
3801;SDS011;1916;51.798;12.246;2023-03-02T05:41:47;12.50;;;8.50;;
3801;SDS011;1916;51.798;12.246;2023-03-02T05:43:49;12.50;;;9.33;;
3801;SDS011;1916;51.798;12.246;2023-03-02T05:45:51;14.60;;;9.90;;
3801;SDS011;1916;51.798;12.246;2023-03-02T05:47:53;37.70;;;11.00;;
3801;SDS011;1916;51.798;12.246;2023-03-02T05:49:56;17.03;;;9.60;;
3801;SDS011;1916;51.798;12.246;2023-03-02T05:51:58;17.13;;;10.10;;
3801;SDS011;1916;51.798;12.246;2023-03-02T05:54:00;13.30;;;8.30;;
3801;SDS011;1916;51.798;12.246;2023-03-02T05:56:02;12.10;;;8.27;;
3801;SDS011;1916;51.798;12.246;2023-03-02T05:58:05;13.20;;;9.30;;
3801;SDS011;1916;51.798;12.246;2023-03-02T06:00:10;22.00;;;10.10;;
3801;SDS011;1916;51.798;12.246;2023-03-02T06:02:13;14.23;;;8.90;;
3801;SDS011;1916;51.798;12.246;2023-03-02T06:04:15;16.03;;;10.07;;
3801;SDS011;1916;51.798;12.246;2023-03-02T06:06:18;14.97;;;9.03;;
3801;SDS011;1916;51.798;12.246;2023-03-02T06:08:20;16.50;;;10.23;;
3801;SDS011;1916;51.798;12.246;2023-03-02T06:10:22;17.73;;;8.70;;
3801;SDS011;1916;51.798;12.246;2023-03-02T06:12:25;16.90;;;9.77;;
3801;SDS011;1916;51.798;12.246;2023-03-02T06:14:27;20.50;;;10.10;;
3801;SDS011;1916;51.798;12.246;2023-03-02T06:16:29;12.40;;;8.73;;
3801;SDS011;1916;51.798;12.246;2023-03-02T06:18:33;14.40;;;9.53;;
3801;SDS011;1916;51.798;12.246;2023-03-02T06:20:35;13.10;;;8.90;;
3801;SDS011;1916;51.798;12.246;2023-03-02T06:22:41;19.37;;;9.27;;
3801;SDS011;1916;51.798;12.246;2023-03-02T06:24:45;19.13;;;9.77;;
3801;SDS011;1916;51.798;12.246;2023-03-02T06:26:47;15.67;;;8.93;;
3801;SDS011;1916;51.798;12.246;2023-03-02T06:28:50;17.73;;;9.27;;
3801;SDS011;1916;51.798;12.246;2023-03-02T06:30:54;15.27;;;9.87;;
3801;SDS011;1916;51.798;12.246;2023-03-02T06:32:56;17.27;;;9.73;;
3801;SDS011;1916;51.798;12.246;2023-03-02T06:34:59;15.27;;;9.30;;
3801;SDS011;1916;51.798;12.246;2023-03-02T06:37:01;13.70;;;9.60;;
3801;SDS011;1916;51.798;12.246;2023-03-02T06:39:04;13.40;;;8.80;;
3801;SDS011;1916;51.798;12.246;2023-03-02T06:41:06;12.67;;;9.20;;
3801;SDS011;1916;51.798;12.246;2023-03-02T06:43:09;14.87;;;9.50;;
3801;SDS011;1916;51.798;12.246;2023-03-02T06:45:11;16.13;;;9.97;;
3801;SDS011;1916;51.798;12.246;2023-03-02T06:47:13;13.80;;;9.40;;
3801;SDS011;1916;51.798;12.246;2023-03-02T06:49:15;14.00;;;9.47;;
3801;SDS011;1916;51.798;12.246;2023-03-02T06:51:17;12.80;;;10.10;;
3801;SDS011;1916;51.798;12.246;2023-03-02T06:53:19;18.47;;;10.30;;
3801;SDS011;1916;51.798;12.246;2023-03-02T06:55:23;18.20;;;9.90;;
3801;SDS011;1916;51.798;12.246;2023-03-02T06:57:26;13.77;;;9.77;;
3801;SDS011;1916;51.798;12.246;2023-03-02T06:59:34;13.90;;;9.70;;
3801;SDS011;1916;51.798;12.246;2023-03-02T07:01:36;17.07;;;11.33;;
3801;SDS011;1916;51.798;12.246;2023-03-02T07:03:38;13.60;;;10.33;;
3801;SDS011;1916;51.798;12.246;2023-03-02T07:05:41;15.00;;;9.93;;
3801;SDS011;1916;51.798;12.246;2023-03-02T07:07:46;34.17;;;21.60;;
3801;SDS011;1916;51.798;12.246;2023-03-02T07:09:48;34.00;;;17.77;;
3801;SDS011;1916;51.798;12.246;2023-03-02T07:11:50;34.00;;;19.03;;
3801;SDS011;1916;51.798;12.246;2023-03-02T07:13:53;27.80;;;17.03;;
3801;SDS011;1916;51.798;12.246;2023-03-02T07:15:54;27.80;;;13.70;;
3801;SDS011;1916;51.798;12.246;2023-03-02T07:17:57;26.50;;;13.37;;
3801;SDS011;1916;51.798;12.246;2023-03-02T07:19:59;23.57;;;13.40;;
3801;SDS011;1916;51.798;12.246;2023-03-02T07:22:01;16.23;;;11.50;;
3801;SDS011;1916;51.798;12.246;2023-03-02T07:24:03;25.73;;;11.63;;
3801;SDS011;1916;51.798;12.246;2023-03-02T07:26:05;20.27;;;10.67;;
3801;SDS011;1916;51.798;12.246;2023-03-02T07:28:09;27.70;;;11.70;;
3801;SDS011;1916;51.798;12.246;2023-03-02T07:30:11;19.73;;;11.23;;
3801;SDS011;1916;51.798;12.246;2023-03-02T07:32:15;15.27;;;9.40;;
3801;SDS011;1916;51.798;12.246;2023-03-02T07:34:17;16.07;;;9.87;;
3801;SDS011;1916;51.798;12.246;2023-03-02T07:36:19;18.27;;;10.10;;
3801;SDS011;1916;51.798;12.246;2023-03-02T07:38:21;25.70;;;11.47;;
3801;SDS011;1916;51.798;12.246;2023-03-02T07:40:23;21.13;;;11.43;;
3801;SDS011;1916;51.798;12.246;2023-03-02T07:42:26;19.87;;;10.53;;
3801;SDS011;1916;51.798;12.246;2023-03-02T07:44:30;20.73;;;10.90;;
3801;SDS011;1916;51.798;12.246;2023-03-02T07:46:32;20.97;;;11.60;;
3801;SDS011;1916;51.798;12.246;2023-03-02T07:48:34;16.77;;;10.60;;
3801;SDS011;1916;51.798;12.246;2023-03-02T07:50:36;22.60;;;11.07;;
3801;SDS011;1916;51.798;12.246;2023-03-02T07:52:38;21.00;;;11.60;;
3801;SDS011;1916;51.798;12.246;2023-03-02T07:54:41;21.53;;;12.87;;
3801;SDS011;1916;51.798;12.246;2023-03-02T07:56:43;21.67;;;11.90;;
3801;SDS011;1916;51.798;12.246;2023-03-02T07:58:45;26.93;;;11.37;;
3801;SDS011;1916;51.798;12.246;2023-03-02T08:00:47;20.53;;;12.10;;
3801;SDS011;1916;51.798;12.246;2023-03-02T08:02:50;20.97;;;11.60;;
3801;SDS011;1916;51.798;12.246;2023-03-02T08:04:52;14.87;;;10.40;;
3801;SDS011;1916;51.798;12.246;2023-03-02T08:06:54;15.57;;;11.30;;
3801;SDS011;1916;51.798;12.246;2023-03-02T08:08:57;14.47;;;9.13;;
3801;SDS011;1916;51.798;12.246;2023-03-02T08:11:10;14.70;;;9.80;;
3801;SDS011;1916;51.798;12.246;2023-03-02T08:13:14;16.00;;;9.50;;
3801;SDS011;1916;51.798;12.246;2023-03-02T08:15:17;16.13;;;9.47;;
3801;SDS011;1916;51.798;12.246;2023-03-02T08:17:19;12.23;;;8.53;;
3801;SDS011;1916;51.798;12.246;2023-03-02T08:19:21;16.00;;;10.30;;
3801;SDS011;1916;51.798;12.246;2023-03-02T08:21:24;14.50;;;9.10;;
3801;SDS011;1916;51.798;12.246;2023-03-02T08:23:26;16.40;;;10.17;;
3801;SDS011;1916;51.798;12.246;2023-03-02T08:25:28;29.27;;;9.70;;
3801;SDS011;1916;51.798;12.246;2023-03-02T08:27:30;13.00;;;9.50;;
3801;SDS011;1916;51.798;12.246;2023-03-02T08:29:32;14.43;;;9.47;;
3801;SDS011;1916;51.798;12.246;2023-03-02T08:31:34;13.80;;;9.33;;
3801;SDS011;1916;51.798;12.246;2023-03-02T08:33:37;21.67;;;9.93;;
3801;SDS011;1916;51.798;12.246;2023-03-02T08:35:39;12.83;;;10.57;;
3801;SDS011;1916;51.798;12.246;2023-03-02T08:37:41;13.43;;;9.33;;
3801;SDS011;1916;51.798;12.246;2023-03-02T08:39:44;16.03;;;9.73;;
3801;SDS011;1916;51.798;12.246;2023-03-02T08:41:48;15.60;;;10.07;;
3801;SDS011;1916;51.798;12.246;2023-03-02T08:43:53;12.87;;;8.80;;
3801;SDS011;1916;51.798;12.246;2023-03-02T08:45:56;18.50;;;9.10;;
3801;SDS011;1916;51.798;12.246;2023-03-02T08:47:58;15.80;;;10.10;;
3801;SDS011;1916;51.798;12.246;2023-03-02T08:50:00;11.83;;;8.80;;
3801;SDS011;1916;51.798;12.246;2023-03-02T08:52:03;13.37;;;8.40;;
3801;SDS011;1916;51.798;12.246;2023-03-02T08:54:06;14.33;;;9.40;;
3801;SDS011;1916;51.798;12.246;2023-03-02T08:56:21;13.43;;;9.90;;
3801;SDS011;1916;51.798;12.246;2023-03-02T08:58:28;14.80;;;9.07;;
3801;SDS011;1916;51.798;12.246;2023-03-02T09:00:30;14.40;;;10.13;;
3801;SDS011;1916;51.798;12.246;2023-03-02T09:02:32;15.00;;;9.83;;
3801;SDS011;1916;51.798;12.246;2023-03-02T09:04:34;12.00;;;8.50;;
3801;SDS011;1916;51.798;12.246;2023-03-02T09:06:40;15.50;;;9.60;;
3801;SDS011;1916;51.798;12.246;2023-03-02T09:08:44;12.67;;;8.90;;
3801;SDS011;1916;51.798;12.246;2023-03-02T09:10:46;14.57;;;8.57;;
3801;SDS011;1916;51.798;12.246;2023-03-02T09:12:48;9.07;;;7.60;;
3801;SDS011;1916;51.798;12.246;2023-03-02T09:14:50;11.77;;;8.67;;
3801;SDS011;1916;51.798;12.246;2023-03-02T09:16:52;11.03;;;8.23;;
3801;SDS011;1916;51.798;12.246;2023-03-02T09:18:55;20.30;;;9.33;;
3801;SDS011;1916;51.798;12.246;2023-03-02T09:20:57;14.33;;;9.43;;
3801;SDS011;1916;51.798;12.246;2023-03-02T09:22:59;14.73;;;9.73;;
3801;SDS011;1916;51.798;12.246;2023-03-02T09:25:02;13.10;;;9.87;;
3801;SDS011;1916;51.798;12.246;2023-03-02T09:27:07;15.57;;;9.93;;
3801;SDS011;1916;51.798;12.246;2023-03-02T09:29:09;12.60;;;9.40;;
3801;SDS011;1916;51.798;12.246;2023-03-02T09:31:12;14.00;;;9.47;;
3801;SDS011;1916;51.798;12.246;2023-03-02T09:33:14;13.77;;;9.70;;
3801;SDS011;1916;51.798;12.246;2023-03-02T09:35:16;15.10;;;10.50;;
3801;SDS011;1916;51.798;12.246;2023-03-02T09:37:18;15.03;;;10.40;;
3801;SDS011;1916;51.798;12.246;2023-03-02T09:39:20;13.40;;;10.17;;
3801;SDS011;1916;51.798;12.246;2023-03-02T09:46:51;15.03;;;9.83;;
3801;SDS011;1916;51.798;12.246;2023-03-02T09:49:45;14.03;;;9.90;;
3801;SDS011;1916;51.798;12.246;2023-03-02T09:54:37;14.60;;;10.57;;
3801;SDS011;1916;51.798;12.246;2023-03-02T09:56:44;13.43;;;9.60;;
3801;SDS011;1916;51.798;12.246;2023-03-02T09:58:51;16.27;;;10.53;;
3801;SDS011;1916;51.798;12.246;2023-03-02T10:00:57;17.87;;;9.80;;
3801;SDS011;1916;51.798;12.246;2023-03-02T10:03:06;13.50;;;10.00;;
3801;SDS011;1916;51.798;12.246;2023-03-02T10:05:22;14.07;;;10.20;;
3801;SDS011;1916;51.798;12.246;2023-03-02T10:09:31;15.60;;;11.03;;
3801;SDS011;1916;51.798;12.246;2023-03-02T10:13:52;16.43;;;11.30;;
3801;SDS011;1916;51.798;12.246;2023-03-02T10:16:01;17.37;;;11.17;;
3801;SDS011;1916;51.798;12.246;2023-03-02T10:18:20;15.23;;;9.90;;
3801;SDS011;1916;51.798;12.246;2023-03-02T10:22:37;19.67;;;12.47;;
3801;SDS011;1916;51.798;12.246;2023-03-02T10:24:57;27.10;;;14.80;;
3801;SDS011;1916;51.798;12.246;2023-03-02T10:29:42;17.10;;;11.97;;
3801;SDS011;1916;51.798;12.246;2023-03-02T10:31:57;17.53;;;11.77;;
3801;SDS011;1916;51.798;12.246;2023-03-02T10:34:01;18.97;;;12.77;;
3801;SDS011;1916;51.798;12.246;2023-03-02T10:36:03;19.33;;;12.23;;
3801;SDS011;1916;51.798;12.246;2023-03-02T10:38:16;18.63;;;11.73;;
3801;SDS011;1916;51.798;12.246;2023-03-02T10:42:32;21.10;;;12.37;;
3801;SDS011;1916;51.798;12.246;2023-03-02T10:44:38;18.93;;;12.10;;
3801;SDS011;1916;51.798;12.246;2023-03-02T10:46:43;19.80;;;13.03;;
3801;SDS011;1916;51.798;12.246;2023-03-02T10:48:49;21.07;;;12.87;;
3801;SDS011;1916;51.798;12.246;2023-03-02T10:50:53;15.37;;;11.30;;
3801;SDS011;1916;51.798;12.246;2023-03-02T10:52:56;17.93;;;12.07;;
3801;SDS011;1916;51.798;12.246;2023-03-02T10:55:03;15.30;;;11.43;;
3801;SDS011;1916;51.798;12.246;2023-03-02T10:57:55;14.37;;;11.37;;
3801;SDS011;1916;51.798;12.246;2023-03-02T10:59:41;18.53;;;12.73;;
3801;SDS011;1916;51.798;12.246;2023-03-02T11:01:56;16.13;;;10.90;;
3801;SDS011;1916;51.798;12.246;2023-03-02T11:04:00;17.90;;;11.43;;
3801;SDS011;1916;51.798;12.246;2023-03-02T11:06:17;14.07;;;11.23;;
3801;SDS011;1916;51.798;12.246;2023-03-02T11:08:21;16.73;;;11.30;;
3801;SDS011;1916;51.798;12.246;2023-03-02T11:10:26;19.47;;;12.87;;
3801;SDS011;1916;51.798;12.246;2023-03-02T11:12:34;17.63;;;12.10;;
3801;SDS011;1916;51.798;12.246;2023-03-02T11:14:37;18.80;;;12.17;;
3801;SDS011;1916;51.798;12.246;2023-03-02T11:16:40;15.97;;;11.50;;
3801;SDS011;1916;51.798;12.246;2023-03-02T11:18:50;17.57;;;12.97;;
3801;SDS011;1916;51.798;12.246;2023-03-02T11:21:05;19.33;;;13.27;;
3801;SDS011;1916;51.798;12.246;2023-03-02T11:23:32;19.37;;;11.60;;
3801;SDS011;1916;51.798;12.246;2023-03-02T11:25:39;17.47;;;12.40;;
3801;SDS011;1916;51.798;12.246;2023-03-02T11:27:46;15.83;;;11.10;;
3801;SDS011;1916;51.798;12.246;2023-03-02T11:29:53;17.87;;;12.87;;
3801;SDS011;1916;51.798;12.246;2023-03-02T11:36:59;18.93;;;12.10;;
3801;SDS011;1916;51.798;12.246;2023-03-02T11:39:16;21.40;;;12.60;;
3801;SDS011;1916;51.798;12.246;2023-03-02T11:41:26;16.40;;;11.87;;
3801;SDS011;1916;51.798;12.246;2023-03-02T11:43:31;20.43;;;12.00;;
3801;SDS011;1916;51.798;12.246;2023-03-02T11:45:41;23.13;;;13.27;;
3801;SDS011;1916;51.798;12.246;2023-03-02T11:47:48;20.23;;;12.57;;
3801;SDS011;1916;51.798;12.246;2023-03-02T11:50:03;21.30;;;13.57;;
3801;SDS011;1916;51.798;12.246;2023-03-02T11:52:12;17.57;;;13.90;;
3801;SDS011;1916;51.798;12.246;2023-03-02T11:56:41;21.63;;;13.00;;
3801;SDS011;1916;51.798;12.246;2023-03-02T11:58:43;19.67;;;13.33;;
3801;SDS011;1916;51.798;12.246;2023-03-02T12:00:47;20.53;;;12.10;;
3801;SDS011;1916;51.798;12.246;2023-03-02T12:05:23;17.57;;;12.30;;
3801;SDS011;1916;51.798;12.246;2023-03-02T12:07:26;24.63;;;13.93;;
3801;SDS011;1916;51.798;12.246;2023-03-02T12:09:30;21.60;;;12.87;;
3801;SDS011;1916;51.798;12.246;2023-03-02T12:11:36;17.83;;;11.73;;
3801;SDS011;1916;51.798;12.246;2023-03-02T12:13:40;23.17;;;12.40;;
3801;SDS011;1916;51.798;12.246;2023-03-02T12:15:44;15.90;;;11.17;;
3801;SDS011;1916;51.798;12.246;2023-03-02T12:17:47;15.87;;;12.17;;
3801;SDS011;1916;51.798;12.246;2023-03-02T12:19:51;20.07;;;12.50;;
3801;SDS011;1916;51.798;12.246;2023-03-02T12:24:03;20.03;;;13.13;;
3801;SDS011;1916;51.798;12.246;2023-03-02T12:26:20;22.13;;;13.33;;
3801;SDS011;1916;51.798;12.246;2023-03-02T12:28:32;22.50;;;12.50;;
3801;SDS011;1916;51.798;12.246;2023-03-02T12:30:38;16.20;;;11.80;;
3801;SDS011;1916;51.798;12.246;2023-03-02T12:32:44;18.10;;;11.77;;
3801;SDS011;1916;51.798;12.246;2023-03-02T12:34:53;17.60;;;11.40;;
3801;SDS011;1916;51.798;12.246;2023-03-02T12:37:16;16.43;;;12.23;;
3801;SDS011;1916;51.798;12.246;2023-03-02T12:44:11;17.33;;;11.87;;
3801;SDS011;1916;51.798;12.246;2023-03-02T12:51:05;18.60;;;13.80;;
3801;SDS011;1916;51.798;12.246;2023-03-02T12:53:17;16.77;;;11.60;;
3801;SDS011;1916;51.798;12.246;2023-03-02T12:55:20;13.73;;;11.13;;
3801;SDS011;1916;51.798;12.246;2023-03-02T12:57:22;18.83;;;12.90;;
3801;SDS011;1916;51.798;12.246;2023-03-02T12:59:26;17.53;;;12.33;;
3801;SDS011;1916;51.798;12.246;2023-03-02T13:01:30;18.57;;;13.27;;
3801;SDS011;1916;51.798;12.246;2023-03-02T13:03:43;18.80;;;12.43;;
3801;SDS011;1916;51.798;12.246;2023-03-02T13:05:46;19.70;;;12.60;;
3801;SDS011;1916;51.798;12.246;2023-03-02T13:07:52;19.13;;;13.23;;
3801;SDS011;1916;51.798;12.246;2023-03-02T13:09:56;21.20;;;13.30;;
3801;SDS011;1916;51.798;12.246;2023-03-02T13:11:58;19.40;;;13.30;;
3801;SDS011;1916;51.798;12.246;2023-03-02T13:14:12;17.70;;;13.00;;
3801;SDS011;1916;51.798;12.246;2023-03-02T13:18:35;19.47;;;12.83;;
3801;SDS011;1916;51.798;12.246;2023-03-02T13:20:40;18.13;;;11.23;;